createdAt,value
2018-03-06T00:01:30.107Z,30.07
2018-03-06T00:03:56.738Z,31.30
2018-03-06T00:06:23.377Z,33.77
2018-03-06T00:08:50.486Z,32.17
2018-03-06T00:11:17.135Z,31.57
2018-03-06T00:13:43.976Z,35.67
2018-03-06T00:16:10.727Z,33.50
2018-03-06T00:18:37.413Z,39.77
2018-03-06T00:21:04.143Z,38.17
2018-03-06T00:23:30.823Z,31.57
2018-03-06T00:25:57.873Z,38.80
2018-03-06T00:28:24.571Z,35.97
2018-03-06T00:30:51.282Z,37.30
2018-03-06T00:33:18.060Z,41.67
2018-03-06T00:35:44.777Z,36.87
2018-03-06T00:38:11.440Z,41.20
2018-03-06T00:40:38.119Z,39.67
2018-03-06T00:43:04.770Z,40.43
2018-03-06T00:45:31.500Z,40.90
2018-03-06T00:47:58.158Z,45.47
2018-03-06T00:50:24.934Z,40.67
2018-03-06T00:52:51.565Z,40.67
2018-03-06T00:55:18.309Z,41.80
2018-03-06T00:57:44.992Z,43.57
2018-03-06T01:00:11.630Z,42.10
2018-03-06T01:02:38.423Z,44.00
2018-03-06T01:05:05.084Z,40.67
2018-03-06T01:07:31.749Z,44.20
2018-03-06T01:09:58.459Z,51.23
2018-03-06T01:12:25.204Z,41.40
2018-03-06T01:14:51.955Z,43.40
2018-03-06T01:17:18.617Z,42.17
2018-03-06T01:19:45.290Z,44.17
2018-03-06T01:22:12.070Z,42.93
2018-03-06T01:24:38.846Z,42.50
2018-03-06T01:27:05.531Z,45.20
2018-03-06T01:29:33.731Z,44.50
2018-03-06T01:32:00.433Z,47.37
2018-03-06T01:34:27.371Z,44.73
2018-03-06T01:36:54.169Z,51.23
2018-03-06T01:39:20.815Z,44.27
2018-03-06T01:41:47.991Z,49.80
2018-03-06T01:44:14.645Z,43.80
2018-03-06T01:46:41.400Z,47.93
2018-03-06T01:49:08.465Z,43.50
2018-03-06T01:51:41.269Z,46.83
2018-03-06T01:54:07.941Z,46.10
2018-03-06T01:56:35.020Z,53.17
2018-03-06T01:59:01.747Z,48.20
2018-03-06T02:01:28.545Z,50.37
2018-03-06T02:03:55.342Z,47.23
2018-03-06T02:06:21.974Z,42.23
2018-03-06T02:08:48.640Z,44.67
2018-03-06T02:11:15.316Z,36.83
2018-03-06T02:13:41.989Z,54.90
2018-03-06T02:16:08.710Z,51.47
2018-03-06T02:18:35.372Z,51.07
2018-03-06T02:21:02.278Z,54.23
2018-03-06T02:23:29.733Z,53.60
2018-03-06T02:25:56.415Z,49.80
2018-03-06T02:28:23.123Z,48.37
2018-03-06T02:30:49.782Z,50.10
2018-03-06T02:33:17.188Z,44.70
2018-03-06T02:35:43.880Z,47.10
2018-03-06T02:38:11.346Z,50.00
2018-03-06T02:40:38.132Z,50.27
2018-03-06T02:43:04.948Z,53.43
2018-03-06T02:45:31.574Z,53.67
2018-03-06T02:47:58.303Z,54.83
2018-03-06T02:50:24.967Z,48.40
2018-03-06T02:52:51.756Z,54.77
2018-03-06T02:55:18.439Z,55.17
2018-03-06T02:57:45.218Z,58.13
2018-03-06T03:00:12.053Z,63.83
2018-03-06T03:02:38.942Z,51.40
2018-03-06T03:05:05.570Z,56.27
2018-03-06T03:07:32.221Z,61.97
2018-03-06T03:09:58.879Z,55.90
2018-03-06T03:12:25.570Z,60.50
2018-03-06T03:14:52.408Z,61.87
2018-03-06T03:17:19.307Z,61.17
2018-03-06T03:19:46.005Z,59.53
2018-03-06T03:22:12.658Z,57.23
2018-03-06T03:24:39.531Z,60.70
2018-03-06T03:27:06.422Z,64.90
2018-03-06T03:29:33.073Z,59.63
2018-03-06T03:31:59.953Z,61.00
2018-03-06T03:34:26.618Z,57.97
2018-03-06T03:36:53.802Z,61.53
2018-03-06T03:39:20.662Z,63.37
2018-03-06T03:41:47.403Z,62.63
2018-03-06T03:44:14.081Z,60.13
2018-03-06T03:46:40.831Z,65.20
2018-03-06T03:49:07.701Z,62.67
2018-03-06T03:51:34.590Z,61.77
2018-03-06T03:54:01.520Z,65.07
2018-03-06T03:56:28.194Z,64.07
2018-03-06T03:58:54.890Z,64.30
2018-03-06T04:01:21.537Z,67.97
2018-03-06T04:03:48.250Z,63.63
2018-03-06T04:06:15.036Z,66.50
2018-03-06T04:08:41.864Z,72.87
2018-03-06T04:11:08.624Z,65.57
2018-03-06T04:13:35.277Z,69.83
2018-03-06T04:16:02.002Z,67.57
2018-03-06T04:18:28.637Z,64.23
2018-03-06T04:20:55.304Z,70.50
2018-03-06T04:23:22.160Z,71.90
2018-03-06T04:25:48.859Z,66.80
2018-03-06T04:28:15.619Z,69.30
2018-03-06T04:30:42.378Z,69.50
2018-03-06T04:33:09.074Z,71.47
2018-03-06T04:35:35.756Z,69.37
2018-03-06T04:38:02.445Z,71.10
2018-03-06T04:40:29.156Z,69.90
2018-03-06T04:42:55.836Z,65.80
2018-03-06T04:45:22.565Z,72.00
2018-03-06T04:47:49.260Z,75.80
2018-03-06T04:50:16.011Z,73.40
2018-03-06T04:52:42.692Z,69.67
2018-03-06T04:55:09.336Z,72.80
2018-03-06T04:57:36.041Z,71.93
2018-03-06T05:00:02.684Z,70.33
2018-03-06T05:02:29.406Z,74.83
2018-03-06T05:04:56.073Z,69.70
2018-03-06T05:07:22.819Z,71.77
2018-03-06T05:09:49.495Z,70.63
2018-03-06T05:12:16.161Z,74.77
2018-03-06T05:14:42.831Z,68.60
2018-03-06T05:17:09.543Z,65.80
2018-03-06T05:19:36.283Z,68.20
2018-03-06T05:22:03.187Z,63.73
2018-03-06T05:24:29.964Z,68.13
2018-03-06T05:26:56.679Z,67.73
2018-03-06T05:29:23.406Z,68.37
2018-03-06T05:31:50.057Z,67.40
2018-03-06T05:34:16.815Z,70.00
2018-03-06T05:36:44.286Z,66.77
2018-03-06T05:39:11.044Z,69.50
2018-03-06T05:41:39.470Z,73.33
2018-03-06T05:44:06.194Z,76.67
2018-03-06T05:46:33.746Z,71.33
2018-03-06T05:49:00.438Z,74.00
2018-03-06T05:51:27.161Z,64.60
2018-03-06T05:53:53.854Z,64.37
2018-03-06T05:56:20.547Z,64.73
2018-03-06T05:58:47.246Z,64.20
2018-03-06T06:01:13.915Z,49.53
2018-03-06T06:03:42.355Z,40.50
2018-03-06T06:06:09.010Z,42.83
2018-03-06T06:08:44.932Z,42.17
2018-03-06T06:11:16.167Z,43.10
2018-03-06T06:13:42.944Z,35.57
2018-03-06T06:16:09.572Z,38.10
2018-03-06T06:18:36.412Z,32.53
2018-03-06T06:21:03.027Z,27.13
2018-03-06T06:23:30.796Z,31.63
2018-03-06T06:25:57.454Z,26.57
2018-03-06T06:28:24.102Z,23.10
2018-03-06T06:30:51.241Z,23.10
2018-03-06T06:33:17.906Z,25.07
2018-03-06T06:35:44.551Z,22.97
2018-03-06T06:38:11.442Z,20.20
2018-03-06T06:40:38.112Z,22.77
2018-03-06T06:43:04.763Z,22.57
2018-03-06T06:45:31.392Z,25.70
2018-03-06T06:47:58.032Z,25.00
2018-03-06T06:50:24.688Z,24.57
2018-03-06T06:52:51.347Z,23.67
2018-03-06T06:55:17.992Z,28.30
2018-03-06T06:57:44.638Z,23.90
2018-03-06T07:00:11.270Z,23.13
2018-03-06T07:02:37.915Z,22.90
2018-03-06T07:05:04.544Z,24.60
2018-03-06T07:07:31.199Z,25.50
2018-03-06T07:09:57.895Z,23.40
2018-03-06T07:12:24.765Z,26.97
2018-03-06T07:14:51.777Z,20.37
2018-03-06T07:17:18.414Z,27.87
2018-03-06T07:19:45.261Z,27.90
2018-03-06T07:22:11.899Z,32.37
2018-03-06T07:24:38.553Z,31.37
2018-03-06T07:27:05.556Z,32.37
2018-03-06T07:32:18.036Z,29.40
2018-03-06T07:34:44.689Z,31.03
2018-03-06T07:37:11.432Z,27.90
2018-03-06T07:39:38.114Z,31.77
2018-03-06T07:42:05.430Z,33.17
2018-03-06T07:44:32.070Z,32.97
2018-03-06T07:46:58.716Z,36.00
2018-03-06T07:49:25.364Z,35.17
2018-03-06T07:51:52.008Z,38.00
2018-03-06T07:54:18.671Z,33.67
2018-03-06T07:56:45.312Z,34.00
2018-03-06T07:59:11.925Z,38.00
2018-03-06T08:01:38.588Z,38.10
2018-03-06T08:04:05.258Z,35.17
2018-03-06T08:06:31.910Z,34.47
2018-03-06T08:08:58.532Z,33.57
2018-03-06T08:11:25.158Z,35.67
2018-03-06T08:13:51.806Z,34.03
2018-03-06T08:16:18.800Z,30.60
2018-03-06T08:18:45.436Z,32.90
2018-03-06T08:21:12.083Z,30.87
2018-03-06T08:23:38.706Z,31.50
2018-03-06T08:26:05.335Z,33.07
2018-03-06T08:28:32.003Z,32.70
2018-03-06T08:30:58.663Z,28.27
2018-03-06T08:33:25.323Z,32.73
2018-03-06T08:35:51.953Z,35.60
2018-03-06T08:38:18.642Z,29.10
2018-03-06T08:40:45.278Z,29.70
2018-03-06T08:43:11.938Z,33.37
2018-03-06T08:45:38.591Z,33.00
2018-03-06T08:48:05.230Z,33.60
2018-03-06T08:50:31.889Z,35.40
2018-03-06T08:52:58.538Z,38.50
2018-03-06T08:55:25.148Z,35.17
2018-03-06T08:57:51.806Z,35.60
2018-03-06T09:00:18.443Z,39.20
2018-03-06T09:02:45.116Z,35.57
2018-03-06T09:05:11.732Z,36.53
2018-03-06T09:07:38.358Z,37.27
2018-03-06T09:10:05.048Z,32.00
2018-03-06T09:12:31.713Z,33.47
2018-03-06T09:14:58.346Z,34.93
2018-03-06T09:17:24.999Z,32.37
2018-03-06T09:19:51.675Z,34.33
2018-03-06T09:22:18.326Z,34.27
2018-03-06T09:24:44.978Z,34.70
2018-03-06T09:27:11.677Z,33.73
2018-03-06T09:29:38.283Z,38.60
2018-03-06T09:32:04.970Z,35.20
2018-03-06T09:34:31.630Z,33.40
2018-03-06T09:36:58.300Z,33.97
2018-03-06T09:39:24.998Z,34.57
2018-03-06T09:41:51.691Z,34.50
2018-03-06T09:44:18.326Z,32.70
2018-03-06T09:46:44.975Z,33.93
2018-03-06T09:49:11.665Z,34.17
2018-03-06T09:51:38.280Z,34.60
2018-03-06T09:54:04.938Z,37.70
2018-03-06T09:56:31.564Z,37.57
2018-03-06T09:58:58.194Z,39.90
2018-03-06T10:01:24.832Z,38.77
2018-03-06T10:03:51.469Z,40.73
2018-03-06T10:06:18.508Z,37.10
2018-03-06T10:08:45.148Z,39.13
2018-03-06T10:11:11.789Z,37.20
2018-03-06T10:13:38.451Z,38.53
2018-03-06T10:16:05.093Z,51.10
2018-03-06T10:18:31.764Z,42.17
2018-03-06T10:20:58.442Z,41.87
2018-03-06T10:23:25.081Z,43.20
2018-03-06T10:25:51.733Z,42.10
2018-03-06T10:28:18.390Z,44.73
2018-03-06T10:30:45.021Z,44.20
2018-03-06T10:33:11.703Z,38.73
2018-03-06T10:35:38.354Z,39.47
2018-03-06T10:38:05.316Z,40.03
2018-03-06T10:40:31.944Z,37.83
2018-03-06T10:42:58.589Z,39.17
2018-03-06T10:45:25.276Z,37.30
2018-03-06T10:47:51.971Z,36.87
2018-03-06T10:50:18.629Z,37.10
2018-03-06T10:52:45.267Z,33.80
2018-03-06T10:55:11.952Z,36.63
2018-03-06T10:57:38.580Z,37.53
2018-03-06T11:00:05.276Z,39.47
2018-03-06T11:02:31.899Z,39.07
2018-03-06T11:04:58.866Z,42.13
2018-03-06T11:07:25.484Z,40.33
2018-03-06T11:09:52.123Z,40.40
2018-03-06T11:12:18.804Z,43.20
2018-03-06T11:14:45.433Z,41.67
2018-03-06T11:17:12.154Z,43.50
2018-03-06T11:19:38.762Z,40.37
2018-03-06T11:22:05.402Z,40.03
2018-03-06T11:24:32.046Z,37.97
2018-03-06T11:26:58.720Z,38.87
2018-03-06T11:29:25.396Z,36.10
2018-03-06T11:31:52.047Z,34.00
2018-03-06T11:34:18.681Z,41.53
2018-03-06T11:36:45.430Z,41.13
2018-03-06T11:39:12.071Z,37.17
2018-03-06T11:41:38.706Z,45.60
2018-03-06T11:44:05.421Z,45.10
2018-03-06T11:46:32.071Z,56.57
2018-03-06T11:48:58.775Z,48.17
2018-03-06T11:51:25.421Z,46.27
2018-03-06T11:53:52.105Z,52.00
2018-03-06T11:56:19.242Z,49.77
2018-03-06T11:58:45.875Z,50.87
2018-03-06T12:01:12.542Z,45.97
2018-03-06T12:03:39.221Z,46.83
2018-03-06T12:06:05.856Z,47.00
2018-03-06T12:08:32.530Z,49.10
2018-03-06T12:10:59.196Z,46.50
2018-03-06T12:13:26.112Z,45.63
2018-03-06T12:15:52.758Z,48.33
2018-03-06T12:18:19.437Z,46.30
2018-03-06T12:20:46.165Z,46.80
2018-03-06T12:23:12.808Z,42.53
2018-03-06T12:25:39.486Z,41.07
2018-03-06T12:28:06.137Z,42.33
2018-03-06T12:30:32.783Z,47.00
2018-03-06T12:33:00.130Z,44.97
2018-03-06T12:35:26.781Z,44.73
2018-03-06T12:37:53.445Z,46.33
2018-03-06T12:40:20.098Z,47.40
2018-03-06T12:42:46.747Z,44.77
2018-03-06T12:45:13.430Z,45.10
2018-03-06T12:47:40.086Z,49.33
2018-03-06T12:50:06.821Z,46.40
2018-03-06T12:52:33.485Z,47.83
2018-03-06T12:55:00.146Z,43.73
2018-03-06T12:57:26.907Z,49.30
2018-03-06T12:59:53.544Z,47.17
2018-03-06T13:02:20.190Z,47.37
2018-03-06T13:04:46.843Z,41.10
2018-03-06T13:07:13.555Z,44.20
2018-03-06T13:09:40.260Z,44.73
2018-03-06T13:12:06.945Z,45.40
2018-03-06T13:14:33.584Z,44.07
2018-03-06T13:17:00.430Z,49.33
2018-03-06T13:19:27.132Z,43.10
2018-03-06T13:21:53.834Z,44.80
2018-03-06T13:24:20.508Z,41.57
2018-03-06T13:26:47.206Z,38.70
2018-03-06T13:29:13.998Z,38.73
2018-03-06T13:31:40.704Z,43.50
2018-03-06T13:34:07.345Z,39.50
2018-03-06T13:36:34.197Z,38.90
2018-03-06T13:39:01.238Z,37.20
2018-03-06T13:41:27.955Z,34.87
2018-03-06T13:43:54.605Z,34.50
2018-03-06T13:46:21.253Z,34.13
2018-03-06T13:48:47.958Z,41.47
2018-03-06T13:51:14.705Z,36.00
2018-03-06T13:53:41.694Z,41.43
2018-03-06T13:56:08.362Z,30.70
2018-03-06T13:58:34.998Z,29.40
2018-03-06T14:01:01.639Z,28.50
2018-03-06T14:03:28.346Z,29.63
2018-03-06T14:05:54.962Z,29.60
2018-03-06T14:08:21.618Z,32.43
2018-03-06T14:10:48.260Z,30.20
2018-03-06T14:13:14.940Z,30.63
2018-03-06T14:15:41.628Z,30.40
2018-03-06T14:18:08.285Z,30.77
2018-03-06T14:20:35.088Z,28.27
2018-03-06T14:23:02.950Z,30.00
2018-03-06T14:25:29.624Z,32.50
2018-03-06T14:27:56.293Z,30.90
2018-03-06T14:30:22.963Z,35.80
2018-03-06T14:32:49.626Z,30.80
2018-03-06T14:35:16.282Z,35.43
2018-03-06T14:37:42.901Z,29.60
2018-03-06T14:40:09.666Z,31.07
2018-03-06T14:42:36.330Z,32.57
2018-03-06T14:45:03.062Z,36.63
2018-03-06T14:47:29.729Z,34.03
2018-03-06T14:49:56.438Z,34.97
2018-03-06T14:52:23.063Z,34.83
2018-03-06T14:54:49.728Z,35.07
2018-03-06T14:57:16.446Z,38.70
2018-03-06T14:59:43.237Z,37.80
2018-03-06T15:02:09.953Z,34.27
2018-03-06T15:04:36.604Z,38.87
2018-03-06T15:07:03.324Z,37.47
2018-03-06T15:09:29.960Z,35.50
2018-03-06T15:11:56.727Z,34.57
2018-03-06T15:14:23.376Z,36.30
2018-03-06T15:16:50.101Z,40.43
2018-03-06T15:19:16.762Z,41.37
2018-03-06T15:21:44.347Z,43.90
2018-03-06T15:24:11.303Z,41.97
2018-03-06T15:26:37.973Z,41.37
2018-03-06T15:29:04.631Z,41.50
2018-03-06T15:31:31.371Z,41.37
2018-03-06T15:33:59.702Z,41.97
2018-03-06T15:36:26.424Z,47.37
2018-03-06T15:38:53.236Z,44.43
2018-03-06T15:41:21.791Z,43.63
2018-03-06T15:43:48.502Z,45.57
2018-03-06T15:46:15.148Z,45.73
2018-03-06T15:48:41.890Z,43.57
2018-03-06T15:51:08.599Z,46.57
2018-03-06T15:53:35.535Z,47.33
2018-03-06T15:56:02.263Z,44.33
2018-03-06T15:58:28.978Z,44.23
2018-03-06T16:00:55.938Z,43.27
2018-03-06T16:03:22.589Z,44.60
2018-03-06T16:05:49.245Z,43.50
2018-03-06T16:08:15.888Z,46.03
2018-03-06T16:10:42.548Z,44.07
2018-03-06T16:13:09.273Z,45.30
2018-03-06T16:15:35.925Z,39.33
2018-03-06T16:18:02.609Z,43.00
2018-03-06T16:20:29.300Z,42.50
2018-03-06T16:22:55.971Z,40.53
2018-03-06T16:25:22.703Z,39.73
2018-03-06T16:27:49.460Z,41.27
2018-03-06T16:30:16.135Z,40.53
2018-03-06T16:32:42.866Z,38.90
2018-03-06T16:35:09.569Z,37.20
2018-03-06T16:37:36.261Z,38.83
2018-03-06T16:40:02.954Z,35.70
2018-03-06T16:42:30.227Z,38.23
2018-03-06T16:44:57.039Z,38.57
2018-03-06T16:47:23.766Z,37.67
2018-03-06T16:49:50.460Z,39.63
2018-03-06T16:52:17.100Z,37.90
2018-03-06T16:54:48.238Z,33.83
2018-03-06T16:57:16.518Z,29.60
2018-03-06T16:59:43.127Z,27.87
2018-03-06T17:02:10.633Z,26.03
2018-03-06T17:04:37.249Z,27.97
2018-03-06T17:07:03.991Z,25.93
2018-03-06T17:09:30.979Z,24.10
2018-03-06T17:11:57.740Z,23.97
2018-03-06T17:14:24.485Z,24.03
2018-03-06T17:16:51.130Z,24.87
2018-03-06T17:19:17.864Z,25.63
2018-03-06T17:21:44.480Z,27.00
2018-03-06T17:24:11.151Z,27.40
2018-03-06T17:26:39.941Z,29.10
2018-03-06T17:29:06.819Z,28.20
2018-03-06T17:31:33.499Z,28.87
2018-03-06T17:34:00.922Z,33.00
2018-03-06T17:36:27.585Z,28.30
2018-03-06T17:38:54.421Z,31.53
2018-03-06T17:41:21.118Z,31.87
2018-03-06T17:43:47.824Z,33.63
2018-03-06T17:46:14.891Z,31.90
2018-03-06T17:48:41.626Z,30.43
2018-03-06T17:51:09.576Z,27.80
2018-03-06T17:53:37.681Z,23.60
2018-03-06T17:56:04.670Z,21.77
2018-03-06T17:58:31.399Z,24.30
2018-03-06T18:00:58.050Z,19.20
2018-03-06T18:03:24.679Z,18.07
2018-03-06T18:05:51.299Z,16.60
2018-03-06T18:08:18.058Z,15.87
2018-03-06T18:10:44.955Z,16.53
2018-03-06T18:13:11.607Z,15.10
2018-03-06T18:15:38.310Z,16.60
2018-03-06T18:18:05.454Z,16.70
2018-03-06T18:20:33.357Z,13.13
2018-03-06T18:23:00.010Z,11.00
2018-03-06T18:25:26.655Z,11.10
2018-03-06T18:27:53.329Z,11.93
2018-03-06T18:30:20.433Z,10.40
2018-03-06T18:32:47.309Z,10.47
2018-03-06T18:35:13.926Z,11.83
2018-03-06T18:37:41.786Z,11.00
2018-03-06T18:40:09.043Z,12.30
2018-03-06T18:42:35.690Z,13.73
2018-03-06T18:45:02.383Z,13.53
2018-03-06T18:47:29.226Z,14.90
2018-03-06T18:50:03.439Z,14.27
2018-03-06T18:52:30.148Z,14.20
2018-03-06T18:54:56.863Z,14.60
2018-03-06T18:57:23.754Z,17.67
2018-03-06T18:59:56.326Z,16.70
2018-03-06T19:02:28.803Z,16.67
2018-03-06T19:05:01.202Z,17.03
2018-03-06T19:07:27.858Z,17.30
2018-03-06T19:09:54.530Z,17.40
2018-03-06T19:12:21.629Z,18.47
2018-03-06T19:14:48.342Z,17.63
2018-03-06T19:17:14.970Z,19.87
2018-03-06T19:19:41.827Z,19.90
2018-03-06T19:22:09.004Z,20.47
2018-03-06T19:24:35.729Z,19.40
2018-03-06T19:27:04.185Z,17.93
2018-03-06T19:29:31.180Z,19.33
2018-03-06T19:31:57.874Z,19.83
2018-03-06T19:34:24.615Z,17.87
2018-03-06T19:36:51.414Z,18.00
2018-03-06T19:39:18.122Z,18.63
2018-03-06T19:41:44.868Z,18.90
2018-03-06T19:44:11.881Z,18.77
2018-03-06T19:46:38.512Z,19.10
2018-03-06T19:49:05.190Z,17.97
2018-03-06T19:51:31.911Z,17.13
2018-03-06T19:53:58.580Z,17.90
2018-03-06T19:56:25.528Z,16.50
2018-03-06T19:58:52.178Z,17.37
2018-03-06T20:01:19.334Z,16.20
2018-03-06T20:03:46.008Z,16.87
2018-03-06T20:06:13.024Z,17.83
2018-03-06T20:08:39.721Z,16.83
2018-03-06T20:11:06.938Z,16.77
2018-03-06T20:13:33.639Z,16.23
2018-03-06T20:16:00.577Z,15.30
2018-03-06T20:18:27.417Z,15.87
2018-03-06T20:20:54.142Z,15.27
2018-03-06T20:23:21.351Z,15.23
2018-03-06T20:25:54.149Z,16.60
2018-03-06T20:28:20.812Z,16.33
2018-03-06T20:30:53.164Z,17.53
2018-03-06T20:33:19.831Z,16.00
2018-03-06T20:35:46.653Z,17.43
2018-03-06T20:38:19.192Z,16.83
2018-03-06T20:40:46.043Z,17.63
2018-03-06T20:43:12.817Z,17.27
2018-03-06T20:45:45.245Z,18.07
2018-03-06T20:48:12.116Z,17.07
2018-03-06T20:50:39.127Z,16.73
2018-03-06T20:53:11.453Z,17.83
2018-03-06T20:55:38.109Z,17.17
2018-03-06T20:58:04.819Z,18.27
2018-03-06T21:00:31.490Z,16.90
2018-03-06T21:03:00.173Z,18.13
2018-03-06T21:05:26.811Z,16.70
2018-03-06T21:07:53.483Z,16.57
2018-03-06T21:10:20.152Z,16.33
2018-03-06T21:12:47.016Z,16.13
2018-03-06T21:15:13.711Z,16.33
2018-03-06T21:17:40.551Z,14.80
2018-03-06T21:20:07.992Z,15.13
2018-03-06T21:22:34.695Z,16.20
2018-03-06T21:25:01.616Z,15.60
2018-03-06T21:27:28.276Z,15.33
2018-03-06T21:29:55.174Z,15.00
2018-03-06T21:32:21.840Z,14.00
2018-03-06T21:34:48.839Z,15.10
2018-03-06T21:37:15.527Z,12.67
2018-03-06T21:39:42.290Z,13.17
2018-03-06T21:42:09.126Z,12.83
2018-03-06T21:44:35.762Z,12.80
2018-03-06T21:47:02.461Z,14.37
2018-03-06T21:49:29.221Z,14.00
2018-03-06T21:51:55.935Z,13.43
2018-03-06T21:54:22.673Z,12.93
2018-03-06T21:56:49.364Z,13.93
2018-03-06T21:59:16.093Z,13.63
2018-03-06T22:01:43.913Z,12.87
2018-03-06T22:04:11.193Z,15.33
2018-03-06T22:06:37.963Z,16.73
2018-03-06T22:09:04.791Z,15.20
2018-03-06T22:11:31.679Z,16.60
2018-03-06T22:13:58.373Z,18.50
2018-03-06T22:16:25.088Z,18.43
2018-03-06T22:18:51.721Z,18.90
2018-03-06T22:21:18.467Z,19.40
2018-03-06T22:23:45.863Z,19.80
2018-03-06T22:26:13.063Z,19.60
2018-03-06T22:28:39.756Z,19.47
2018-03-06T22:31:06.409Z,21.97
2018-03-06T22:33:33.090Z,21.20
2018-03-06T22:35:59.767Z,19.90
2018-03-06T22:38:26.470Z,19.50
2018-03-06T22:40:53.114Z,19.83
2018-03-06T22:43:19.768Z,21.87
2018-03-06T22:45:46.424Z,20.63
2018-03-06T22:48:13.994Z,19.17
2018-03-06T22:50:40.750Z,20.03
2018-03-06T22:53:07.456Z,21.33
2018-03-06T22:55:34.127Z,22.10
2018-03-06T22:58:00.792Z,19.47
2018-03-06T23:00:27.540Z,22.57
2018-03-06T23:02:54.202Z,19.87
2018-03-06T23:05:21.047Z,22.03
2018-03-06T23:07:47.694Z,21.57
2018-03-06T23:10:14.320Z,25.47
2018-03-06T23:12:40.964Z,21.80
2018-03-06T23:15:07.622Z,23.27
2018-03-06T23:17:34.306Z,23.60
2018-03-06T23:20:00.990Z,21.27
2018-03-06T23:22:27.657Z,23.47
2018-03-06T23:24:54.291Z,21.80
2018-03-06T23:27:20.941Z,23.50
2018-03-06T23:29:47.836Z,22.90
2018-03-06T23:32:14.682Z,24.00
2018-03-06T23:34:41.337Z,25.77
2018-03-06T23:37:07.957Z,24.47
2018-03-06T23:39:34.603Z,24.60
2018-03-06T23:42:01.241Z,23.97
2018-03-06T23:44:27.884Z,24.37
2018-03-06T23:46:54.615Z,25.50
2018-03-06T23:49:21.272Z,25.63
2018-03-06T23:51:47.971Z,27.03
2018-03-06T23:54:14.828Z,26.13
2018-03-06T23:56:41.771Z,26.27
2018-03-06T23:59:08.621Z,27.00
